Time;durP1;ratioP1;P1;durP2;ratioP2;P2;SDS_P1;SDS_P2;PMS_P1;PMS_P2;Temp;Humidity;BMP_temperature;BMP_pressure;BME280_temperature;BME280_humidity;BME280_pressure;Samples;Min_cycle;Max_cycle;Signal;HPM_P1;HPM_P2
2022/12/13 00:04:12;;;;;;;51.65;32.95;;;;;;;;;;10064977;28;20045;-70
2022/12/13 00:09:05;;;;;;;51.40;31.77;;;;;;;;;;10078528;28;20063;-70
2022/12/13 00:13:58;;;;;;;55.88;30.67;;;;;;;;;;10084823;28;20049;-69
2022/12/13 00:18:57;;;;;;;48.28;30.92;;;;;;;;;;10088290;28;20136;-74
2022/12/13 00:23:51;;;;;;;57.33;32.30;;;;;;;;;;10089478;28;20555;-74
2022/12/13 00:28:46;;;;;;;62.00;37.90;;;;;;;;;;10079378;28;20131;-72
2022/12/13 00:33:40;;;;;;;54.90;30.83;;;;;;;;;;10079975;28;20041;-70
2022/12/13 00:38:35;;;;;;;57.60;36.92;;;;;;;;;;10082480;28;20055;-69
2022/12/13 00:43:28;;;;;;;63.40;34.08;;;;;;;;;;10089507;28;20038;-70
2022/12/13 00:48:22;;;;;;;59.65;33.05;;;;;;;;;;10079249;28;20402;-69
2022/12/13 00:53:16;;;;;;;54.72;30.77;;;;;;;;;;10075702;28;20442;-69
2022/12/13 00:58:10;;;;;;;51.75;33.38;;;;;;;;;;10073544;28;20124;-69
2022/12/13 01:03:19;;;;;;;50.33;30.70;;;;;;;;;;10073384;28;20049;-68
2022/12/13 01:08:13;;;;;;;44.72;26.75;;;;;;;;;;10072297;28;20049;-70
2022/12/13 01:13:07;;;;;;;47.60;27.20;;;;;;;;;;10071968;28;20075;-70
2022/12/13 01:18:00;;;;;;;42.83;27.95;;;;;;;;;;10069723;28;20049;-70
2022/12/13 01:22:54;;;;;;;55.55;37.55;;;;;;;;;;10075716;28;20624;-70
2022/12/13 01:27:48;;;;;;;71.00;39.83;;;;;;;;;;10081952;28;20115;-70
2022/12/13 01:32:42;;;;;;;54.35;35.17;;;;;;;;;;10084652;28;20087;-69
2022/12/13 01:37:36;;;;;;;54.67;33.70;;;;;;;;;;10078564;28;20060;-70
2022/12/13 01:42:30;;;;;;;67.07;37.60;;;;;;;;;;10078836;28;20107;-70
2022/12/13 01:47:28;;;;;;;79.47;43.40;;;;;;;;;;10085000;28;20048;-70
2022/12/13 01:52:22;;;;;;;66.32;38.38;;;;;;;;;;10087331;28;20439;-70
2022/12/13 01:57:17;;;;;;;81.70;46.75;;;;;;;;;;10082406;28;20045;-70
2022/12/13 02:02:11;;;;;;;86.88;48.58;;;;;;;;;;10074572;28;20490;-70
2022/12/13 02:07:06;;;;;;;96.25;52.42;;;;;;;;;;10077421;28;20080;-70
2022/12/13 02:12:05;;;;;;;85.97;44.38;;;;;;;;;;10084364;28;20136;-69
2022/12/13 02:17:04;;;;;;;63.05;37.85;;;;;;;;;;10085506;28;20145;-69
2022/12/13 02:22:06;;;;;;;;;;;;;;;;;;10083991;28;20051;-69
2022/12/13 02:27:03;;;;;;;59.90;35.65;;;;;;;;;;10068019;28;19928;-69
2022/12/13 02:32:08;;;;;;;71.80;39.65;;;;;;;;;;10067101;28;20057;-69
2022/12/13 02:37:21;;;;;;;62.25;39.50;;;;;;;;;;10066815;28;20050;-69
2022/12/13 02:42:33;;;;;;;64.38;38.00;;;;;;;;;;10075503;28;20057;-69
2022/12/13 02:47:28;;;;;;;56.25;33.50;;;;;;;;;;10066575;28;20080;-69
2022/12/13 02:52:24;;;;;;;63.40;36.53;;;;;;;;;;10059613;28;20494;-69
2022/12/13 02:57:37;;;;;;;63.45;36.50;;;;;;;;;;10066092;28;20084;-69
2022/12/13 03:02:33;;;;;;;60.55;35.83;;;;;;;;;;10062344;28;20051;-69
2022/12/13 03:07:31;;;;;;;61.30;36.10;;;;;;;;;;10065841;28;20140;-69
2022/12/13 03:17:55;;;;;;;55.42;34.05;;;;;;;;;;10065284;28;20103;-69
2022/12/13 03:22:50;;;;;;;56.45;35.83;;;;;;;;;;10065026;28;20049;-69
2022/12/13 03:27:43;;;;;;;61.35;37.00;;;;;;;;;;10072457;28;20066;-70
2022/12/13 03:32:37;;;;;;;58.15;33.83;;;;;;;;;;10073299;28;20064;-69
2022/12/13 03:37:32;;;;;;;54.38;33.25;;;;;;;;;;10072665;28;20057;-70
2022/12/13 03:42:25;;;;;;;46.72;31.05;;;;;;;;;;10073147;28;20055;-70
2022/12/13 03:47:19;;;;;;;55.72;30.05;;;;;;;;;;10073062;28;20130;-69
2022/12/13 03:52:13;;;;;;;55.72;35.17;;;;;;;;;;10073091;28;20045;-69
2022/12/13 03:57:06;;;;;;;55.28;32.25;;;;;;;;;;10073022;28;20053;-69
2022/12/13 04:02:00;;;;;;;56.78;32.97;;;;;;;;;;10072006;28;20064;-70
2022/12/13 04:06:56;;;;;;;53.72;30.88;;;;;;;;;;10072391;28;20053;-70
2022/12/13 04:17:02;;;;;;;54.00;31.40;;;;;;;;;;10072005;28;20069;-69
2022/12/13 04:21:55;;;;;;;51.55;31.50;;;;;;;;;;10072230;28;20076;-70
2022/12/13 04:26:49;;;;;;;42.67;28.77;;;;;;;;;;10070700;28;20055;-70
2022/12/13 04:31:43;;;;;;;44.08;28.52;;;;;;;;;;10065090;28;20053;-70
2022/12/13 04:36:37;;;;;;;44.20;29.63;;;;;;;;;;10070548;28;20103;-69
2022/12/13 04:41:35;;;;;;;43.88;28.63;;;;;;;;;;10074100;28;20053;-70
2022/12/13 04:46:28;;;;;;;41.63;26.77;;;;;;;;;;10075331;28;20428;-68
2022/12/13 04:51:23;;;;;;;43.58;28.02;;;;;;;;;;10077942;28;20054;-69
2022/12/13 04:56:16;;;;;;;43.92;30.88;;;;;;;;;;10070887;28;20049;-69
2022/12/13 05:01:11;;;;;;;43.75;28.98;;;;;;;;;;10070100;28;20057;-69
2022/12/13 05:06:08;;;;;;;39.75;26.45;;;;;;;;;;10070260;28;20077;-70
2022/12/13 05:11:19;;;;;;;39.55;26.50;;;;;;;;;;10070081;28;20060;-70
2022/12/13 05:16:21;;;;;;;43.00;27.13;;;;;;;;;;10069874;28;20053;-69
2022/12/13 05:21:17;;;;;;;36.72;25.45;;;;;;;;;;10070353;28;20069;-69
2022/12/13 05:26:11;;;;;;;40.85;26.95;;;;;;;;;;10070603;28;20534;-69
2022/12/13 05:31:09;;;;;;;38.20;25.02;;;;;;;;;;10068969;28;20060;-70
2022/12/13 05:36:15;;;;;;;35.95;25.02;;;;;;;;;;10069298;28;20080;-69
2022/12/13 05:41:14;;;;;;;41.33;25.25;;;;;;;;;;10068632;28;20054;-69
2022/12/13 05:46:08;;;;;;;38.60;26.08;;;;;;;;;;10067469;28;20414;-69
2022/12/13 05:51:02;;;;;;;39.22;27.13;;;;;;;;;;10067886;28;20053;-69
2022/12/13 05:56:04;;;;;;;38.25;24.42;;;;;;;;;;10068763;28;20119;-67
2022/12/13 06:01:18;;;;;;;33.58;23.45;;;;;;;;;;10068323;28;20670;-70
2022/12/13 06:06:12;;;;;;;33.40;21.02;;;;;;;;;;10062746;28;20418;-70
2022/12/13 06:11:06;;;;;;;29.95;21.13;;;;;;;;;;10067348;28;20045;-71
2022/12/13 06:16:05;;;;;;;29.77;21.58;;;;;;;;;;10064446;28;20045;-71
2022/12/13 06:21:15;;;;;;;27.83;19.80;;;;;;;;;;10067234;28;20049;-72
2022/12/13 06:26:09;;;;;;;32.38;22.95;;;;;;;;;;10066475;28;20053;-71
2022/12/13 06:31:03;;;;;;;27.67;20.52;;;;;;;;;;10066264;28;20057;-71
2022/12/13 06:35:57;;;;;;;28.83;19.83;;;;;;;;;;10066329;28;20486;-71
2022/12/13 06:40:51;;;;;;;28.67;19.45;;;;;;;;;;10066652;28;20108;-71
2022/12/13 06:45:45;;;;;;;24.67;20.92;;;;;;;;;;10066258;28;20580;-71
2022/12/13 06:50:39;;;;;;;23.83;19.77;;;;;;;;;;10067611;28;20136;-71
2022/12/13 06:55:31;;;;;;;31.40;21.42;;;;;;;;;;10082461;28;20041;-70
2022/12/13 07:00:25;;;;;;;25.52;20.15;;;;;;;;;;10071842;28;20501;-71
2022/12/13 07:05:29;;;;;;;29.80;21.58;;;;;;;;;;10087319;28;20073;-71
2022/12/13 07:10:23;;;;;;;35.78;25.95;;;;;;;;;;10088457;28;20049;-71
2022/12/13 07:15:16;;;;;;;25.15;21.27;;;;;;;;;;10086677;28;20053;-71
2022/12/13 07:20:13;;;;;;;33.10;24.23;;;;;;;;;;10097323;28;20053;-71
2022/12/13 07:25:07;;;;;;;38.00;26.88;;;;;;;;;;10084469;28;20051;-73
2022/12/13 07:30:19;;;;;;;32.28;22.92;;;;;;;;;;10100334;28;20053;-70
2022/12/13 07:35:14;;;;;;;29.20;22.33;;;;;;;;;;10087054;28;20510;-74
2022/12/13 07:40:09;;;;;;;27.77;22.77;;;;;;;;;;10069831;28;20049;-74
2022/12/13 07:45:04;;;;;;;25.00;20.38;;;;;;;;;;10065875;28;20477;-71
2022/12/13 07:49:57;;;;;;;29.80;22.48;;;;;;;;;;10061816;28;20121;-73
2022/12/13 07:54:50;;;;;;;31.27;21.65;;;;;;;;;;10064776;28;20425;-73
2022/12/13 07:59:45;;;;;;;32.90;23.70;;;;;;;;;;10066615;28;20425;-74
2022/12/13 08:04:41;;;;;;;23.70;19.48;;;;;;;;;;10067626;28;20050;-73
2022/12/13 08:09:35;;;;;;;22.83;18.98;;;;;;;;;;10069274;28;20512;-68
2022/12/13 08:14:30;;;;;;;21.38;18.67;;;;;;;;;;10070871;28;20116;-72
2022/12/13 08:19:23;;;;;;;19.15;15.95;;;;;;;;;;10068205;28;20052;-71
2022/12/13 08:24:18;;;;;;;20.80;16.95;;;;;;;;;;10069113;28;20156;-73
2022/12/13 08:29:13;;;;;;;20.63;17.77;;;;;;;;;;10071281;28;20053;-75
2022/12/13 08:34:25;;;;;;;25.52;19.50;;;;;;;;;;10071435;28;20063;-74
2022/12/13 08:39:19;;;;;;;27.60;18.50;;;;;;;;;;10070068;28;20560;-74
2022/12/13 08:44:12;;;;;;;20.48;17.17;;;;;;;;;;10070436;28;20061;-74
2022/12/13 08:49:06;;;;;;;19.33;16.23;;;;;;;;;;10070305;28;20136;-74
2022/12/13 08:54:00;;;;;;;18.95;15.85;;;;;;;;;;10069612;28;20049;-74
2022/12/13 08:59:03;;;;;;;22.02;18.23;;;;;;;;;;10070339;28;20410;-75
2022/12/13 09:03:56;;;;;;;20.73;18.17;;;;;;;;;;10067542;28;20112;-74
2022/12/13 09:08:52;;;;;;;20.70;18.48;;;;;;;;;;10067831;28;20064;-72
2022/12/13 09:13:45;;;;;;;21.45;18.88;;;;;;;;;;10065233;28;20061;-71
2022/12/13 09:18:39;;;;;;;18.30;15.68;;;;;;;;;;10065479;28;20045;-73
2022/12/13 09:23:35;;;;;;;20.08;17.45;;;;;;;;;;10064837;28;20045;-73
2022/12/13 09:28:38;;;;;;;21.40;16.27;;;;;;;;;;10064470;28;20159;-74
2022/12/13 09:33:32;;;;;;;17.90;16.00;;;;;;;;;;10064081;28;20487;-72
2022/12/13 09:38:34;;;;;;;17.73;15.23;;;;;;;;;;10062253;28;20042;-73
2022/12/13 09:43:29;;;;;;;20.10;15.35;;;;;;;;;;10064255;28;20045;-74
2022/12/13 09:48:36;;;;;;;22.02;15.77;;;;;;;;;;10064514;28;20128;-73
2022/12/13 09:53:28;;;;;;;21.65;16.23;;;;;;;;;;10064228;28;20103;-75
2022/12/13 09:58:48;;;;;;;23.77;19.60;;;;;;;;;;10067816;28;20133;-76
2022/12/13 10:03:46;;;;;;;22.30;18.67;;;;;;;;;;10067556;28;20069;-78
2022/12/13 10:08:43;;;;;;;20.90;18.65;;;;;;;;;;10066276;28;20465;-77
2022/12/13 10:13:39;;;;;;;20.48;17.48;;;;;;;;;;10066550;28;20049;-75
2022/12/13 10:18:36;;;;;;;21.55;16.35;;;;;;;;;;10063600;28;20065;-75
2022/12/13 10:23:30;;;;;;;18.17;16.25;;;;;;;;;;10062086;28;20064;-76
2022/12/13 10:28:43;;;;;;;16.33;13.77;;;;;;;;;;10063003;28;20077;-76
2022/12/13 10:33:37;;;;;;;16.08;13.40;;;;;;;;;;10060822;28;20101;-75
2022/12/13 10:38:34;;;;;;;48.33;33.50;;;;;;;;;;10059785;28;20088;-76
2022/12/13 10:43:29;;;;;;;25.70;17.92;;;;;;;;;;10061842;28;20049;-77
2022/12/13 10:48:47;;;;;;;15.55;13.05;;;;;;;;;;10061358;28;20057;-78
2022/12/13 10:53:46;;;;;;;16.48;12.40;;;;;;;;;;10062273;28;20045;-76
2022/12/13 10:58:42;;;;;;;19.60;14.90;;;;;;;;;;10061853;28;20072;-73
2022/12/13 11:03:36;;;;;;;15.82;12.95;;;;;;;;;;10061623;28;20540;-72
2022/12/13 11:08:30;;;;;;;14.20;12.02;;;;;;;;;;10059587;28;20072;-74
2022/12/13 11:13:33;;;;;;;16.00;13.13;;;;;;;;;;10058960;28;20056;-73
2022/12/13 11:18:26;;;;;;;36.47;32.47;;;;;;;;;;10059712;28;20063;-73
2022/12/13 11:23:39;;;;;;;14.35;12.45;;;;;;;;;;10059416;28;20037;-72
2022/12/13 11:28:51;;;;;;;15.25;13.48;;;;;;;;;;10058647;28;20203;-70
2022/12/13 11:34:05;;;;;;;21.88;18.02;;;;;;;;;;10060240;28;20068;-69
2022/12/13 11:39:17;;;;;;;19.08;16.60;;;;;;;;;;10059406;28;20065;-70
2022/12/13 11:44:27;;;;;;;16.00;14.13;;;;;;;;;;10060064;28;20124;-69
2022/12/13 11:49:39;;;;;;;13.40;12.00;;;;;;;;;;10068490;28;20053;-70
2022/12/13 11:54:46;;;;;;;13.75;12.18;;;;;;;;;;10071446;28;20397;-71
2022/12/13 11:59:46;;;;;;;11.77;10.57;;;;;;;;;;10061587;28;20049;-71
2022/12/13 12:04:48;;;;;;;12.50;11.02;;;;;;;;;;10070835;28;20489;-70
2022/12/13 12:10:16;;;;;;;14.75;13.23;;;;;;;;;;10070842;28;20063;-70
2022/12/13 12:15:14;;;;;;;15.27;12.52;;;;;;;;;;10065539;28;20057;-71
2022/12/13 12:20:12;;;;;;;13.63;12.20;;;;;;;;;;10069718;28;20072;-70
2022/12/13 12:25:30;;;;;;;15.95;12.77;;;;;;;;;;10068542;28;20126;-71
2022/12/13 12:30:52;;;;;;;13.93;11.63;;;;;;;;;;10070177;28;20054;-71
2022/12/13 12:36:08;;;;;;;17.27;13.80;;;;;;;;;;10033034;28;20045;-69
2022/12/13 12:41:29;;;;;;;13.25;11.73;;;;;;;;;;10064748;28;20056;-70
2022/12/13 12:46:47;;;;;;;15.93;13.73;;;;;;;;;;10066038;28;20397;-69
2022/12/13 12:52:09;;;;;;;15.25;11.90;;;;;;;;;;10067636;28;20060;-69
2022/12/13 12:57:15;;;;;;;14.63;12.75;;;;;;;;;;10066122;28;20060;-69
2022/12/13 13:02:16;;;;;;;20.15;15.23;;;;;;;;;;10060878;28;20045;-69
2022/12/13 13:07:15;;;;;;;20.45;12.77;;;;;;;;;;10060081;28;20061;-69
2022/12/13 13:12:15;;;;;;;16.60;12.75;;;;;;;;;;10068477;28;20057;-69
2022/12/13 13:17:23;;;;;;;12.73;11.05;;;;;;;;;;10068153;28;20056;-69
2022/12/13 13:22:36;;;;;;;15.70;12.00;;;;;;;;;;10070270;28;20053;-69
2022/12/13 13:27:40;;;;;;;;;;;;;;;;;;10053538;28;20053;-68
2022/12/13 13:32:43;;;;;;;14.20;10.15;;;;;;;;;;10066498;28;19971;-70
2022/12/13 13:37:46;;;;;;;14.52;12.13;;;;;;;;;;10067950;28;20081;-69
2022/12/13 13:43:15;;;;;;;15.15;12.15;;;;;;;;;;10067591;28;20552;-70
2022/12/13 13:48:21;;;;;;;14.73;11.23;;;;;;;;;;10067461;28;20104;-70
2022/12/13 13:53:48;;;;;;;12.98;11.32;;;;;;;;;;10066819;28;20120;-68
2022/12/13 13:58:50;;;;;;;13.25;11.23;;;;;;;;;;10059835;28;20057;-68
2022/12/13 14:04:15;;;;;;;13.70;10.40;;;;;;;;;;10065739;28;20071;-69
2022/12/13 14:09:48;;;;;;;15.10;11.32;;;;;;;;;;10051844;28;20470;-69
2022/12/13 14:15:16;;;;;;;12.52;10.05;;;;;;;;;;10060713;28;20403;-70
2022/12/13 14:20:47;;;;;;;11.63;10.38;;;;;;;;;;10066006;28;20045;-69
2022/12/13 14:25:54;;;;;;;11.40;10.20;;;;;;;;;;10065921;28;20568;-69
2022/12/13 14:30:48;;;;;;;14.88;12.10;;;;;;;;;;10063768;28;20099;-69
2022/12/13 14:36:12;;;;;;;12.38;11.18;;;;;;;;;;10064322;28;20466;-70
2022/12/13 14:41:15;;;;;;;13.60;12.02;;;;;;;;;;10065689;28;20057;-69
2022/12/13 14:46:12;;;;;;;11.95;10.73;;;;;;;;;;10061377;28;20413;-70
2022/12/13 14:51:23;;;;;;;13.85;11.18;;;;;;;;;;10065288;28;20045;-70
2022/12/13 14:56:16;;;;;;;14.30;11.82;;;;;;;;;;10063539;28;20051;-69
2022/12/13 15:01:26;;;;;;;15.40;12.32;;;;;;;;;;10064336;28;20069;-69
2022/12/13 15:06:22;;;;;;;16.17;13.98;;;;;;;;;;10065879;28;20069;-68
2022/12/13 15:11:17;;;;;;;15.45;13.70;;;;;;;;;;10066220;28;20077;-68
2022/12/13 15:16:26;;;;;;;15.93;12.25;;;;;;;;;;10065790;28;20053;-68
2022/12/13 15:21:26;;;;;;;15.02;11.77;;;;;;;;;;10068194;28;20056;-68
2022/12/13 15:26:28;;;;;;;14.45;12.07;;;;;;;;;;10073362;28;20058;-68
2022/12/13 15:31:23;;;;;;;16.95;13.75;;;;;;;;;;10074992;28;20048;-68
2022/12/13 15:36:25;;;;;;;14.23;12.40;;;;;;;;;;10072143;28;20099;-68
2022/12/13 15:41:19;;;;;;;14.48;12.90;;;;;;;;;;10070592;28;20115;-68
2022/12/13 15:46:12;;;;;;;15.23;13.40;;;;;;;;;;10071608;28;20053;-68
2022/12/13 15:51:08;;;;;;;17.10;13.70;;;;;;;;;;10071391;28;20054;-68
2022/12/13 15:56:01;;;;;;;15.70;12.82;;;;;;;;;;10071790;28;20049;-66
2022/12/13 16:01:04;;;;;;;15.27;12.85;;;;;;;;;;10071653;28;20054;-68
2022/12/13 16:05:57;;;;;;;16.20;13.10;;;;;;;;;;10072513;28;20489;-68
2022/12/13 16:10:52;;;;;;;16.70;13.57;;;;;;;;;;10073370;28;20080;-68
2022/12/13 16:15:51;;;;;;;17.98;13.80;;;;;;;;;;10071670;28;20068;-68
2022/12/13 16:20:53;;;;;;;18.23;14.20;;;;;;;;;;10072187;28;20126;-68
2022/12/13 16:25:46;;;;;;;16.67;14.13;;;;;;;;;;10078928;28;20171;-68
2022/12/13 16:30:50;;;;;;;21.30;14.48;;;;;;;;;;10071448;28;20561;-68
2022/12/13 16:35:45;;;;;;;15.68;14.07;;;;;;;;;;10063834;28;20102;-68
2022/12/13 16:40:40;;;;;;;17.88;15.40;;;;;;;;;;10068609;28;20045;-69
2022/12/13 16:45:41;;;;;;;16.92;14.38;;;;;;;;;;10071721;28;20072;-70
2022/12/13 16:50:36;;;;;;;18.95;15.77;;;;;;;;;;10068563;28;20095;-69
2022/12/13 16:55:29;;;;;;;17.40;15.10;;;;;;;;;;10068597;28;20045;-68
2022/12/13 17:00:22;;;;;;;15.82;13.23;;;;;;;;;;10067802;28;20046;-69
2022/12/13 17:05:16;;;;;;;18.67;14.50;;;;;;;;;;10065741;28;20525;-69
2022/12/13 17:10:10;;;;;;;17.00;14.90;;;;;;;;;;10057740;28;20073;-70
2022/12/13 17:15:05;;;;;;;18.40;15.40;;;;;;;;;;10065488;28;20099;-69
2022/12/13 17:19:59;;;;;;;16.27;14.57;;;;;;;;;;10069315;28;20422;-68
2022/12/13 17:24:53;;;;;;;18.48;14.13;;;;;;;;;;10068747;28;20055;-68
2022/12/13 17:29:47;;;;;;;15.63;14.00;;;;;;;;;;10068112;28;20535;-67
2022/12/13 17:34:41;;;;;;;16.27;14.60;;;;;;;;;;10068862;28;20053;-68
2022/12/13 17:39:35;;;;;;;19.15;15.65;;;;;;;;;;10068599;28;20123;-68
2022/12/13 17:44:29;;;;;;;18.98;14.43;;;;;;;;;;10066522;28;20051;-69
2022/12/13 17:49:23;;;;;;;18.00;14.27;;;;;;;;;;10067897;28;20120;-69
2022/12/13 17:54:17;;;;;;;21.48;19.08;;;;;;;;;;10065271;28;21357;-69
2022/12/13 17:59:14;;;;;;;22.70;18.13;;;;;;;;;;10067316;28;20080;-69
2022/12/13 18:04:08;;;;;;;18.75;16.52;;;;;;;;;;10067627;28;20049;-68
2022/12/13 18:09:01;;;;;;;21.35;17.70;;;;;;;;;;10066994;28;20514;-68
2022/12/13 18:13:55;;;;;;;17.90;16.10;;;;;;;;;;10066308;28;20413;-69
2022/12/13 18:18:48;;;;;;;21.52;18.48;;;;;;;;;;10066664;28;20057;-69
2022/12/13 18:23:48;;;;;;;19.95;16.98;;;;;;;;;;10065451;28;20095;-68
2022/12/13 18:28:47;;;;;;;29.20;20.08;;;;;;;;;;10066474;28;20088;-69
2022/12/13 18:33:40;;;;;;;22.98;19.77;;;;;;;;;;10067261;28;20136;-69
2022/12/13 18:38:41;;;;;;;25.70;19.40;;;;;;;;;;10065398;28;20084;-69
2022/12/13 18:43:38;;;;;;;29.90;22.60;;;;;;;;;;10061532;28;20061;-69
2022/12/13 18:48:32;;;;;;;23.33;18.95;;;;;;;;;;10066693;28;20049;-69
2022/12/13 18:53:27;;;;;;;24.13;19.50;;;;;;;;;;10063199;28;20119;-69
2022/12/13 18:58:21;;;;;;;28.80;21.27;;;;;;;;;;10061479;28;20529;-70
2022/12/13 19:03:15;;;;;;;24.33;21.73;;;;;;;;;;10050971;28;20129;-68
2022/12/13 19:08:09;;;;;;;46.33;30.67;;;;;;;;;;10064952;28;20046;-69
2022/12/13 19:13:02;;;;;;;30.17;22.30;;;;;;;;;;10066552;28;20152;-68
2022/12/13 19:17:56;;;;;;;27.88;24.98;;;;;;;;;;10065985;28;20103;-68
2022/12/13 19:22:50;;;;;;;23.40;19.40;;;;;;;;;;10062382;28;20120;-68
2022/12/13 19:27:46;;;;;;;22.55;18.95;;;;;;;;;;10065783;28;20494;-69
2022/12/13 19:32:39;;;;;;;25.15;20.67;;;;;;;;;;10066373;28;20053;-68
2022/12/13 19:37:40;;;;;;;26.58;22.65;;;;;;;;;;10053888;28;20429;-69
2022/12/13 19:42:34;;;;;;;26.08;21.38;;;;;;;;;;10065037;28;20553;-67
2022/12/13 19:47:28;;;;;;;26.55;22.38;;;;;;;;;;10065488;28;20465;-67
2022/12/13 19:52:22;;;;;;;25.15;20.05;;;;;;;;;;10065196;28;20136;-68
2022/12/13 19:57:17;;;;;;;21.33;18.52;;;;;;;;;;10067867;28;20057;-65
2022/12/13 20:02:13;;;;;;;22.30;19.90;;;;;;;;;;10064679;28;20104;-68
2022/12/13 20:07:07;;;;;;;23.42;19.52;;;;;;;;;;10067371;28;20049;-68
2022/12/13 20:11:59;;;;;;;24.33;21.63;;;;;;;;;;10071329;28;20049;-69
2022/12/13 20:16:53;;;;;;;23.13;20.73;;;;;;;;;;10070728;28;20056;-67
2022/12/13 20:21:46;;;;;;;29.67;23.20;;;;;;;;;;10070521;28;20120;-69
2022/12/13 20:26:46;;;;;;;32.92;23.83;;;;;;;;;;10070312;28;20125;-68
2022/12/13 20:31:41;;;;;;;23.88;19.88;;;;;;;;;;10069384;28;20050;-69
2022/12/13 20:36:41;;;;;;;30.17;25.50;;;;;;;;;;10069310;28;20115;-69
2022/12/13 20:41:35;;;;;;;27.30;22.75;;;;;;;;;;10069405;28;20045;-75
2022/12/13 20:46:29;;;;;;;31.25;27.13;;;;;;;;;;10069214;28;20053;-68
2022/12/13 20:51:25;;;;;;;27.95;24.73;;;;;;;;;;10068052;28;20516;-66
2022/12/13 20:56:33;;;;;;;28.50;21.90;;;;;;;;;;10071856;28;20057;-67
2022/12/13 21:01:30;;;;;;;24.38;21.77;;;;;;;;;;10070596;28;20049;-67
2022/12/13 21:06:23;;;;;;;27.13;22.75;;;;;;;;;;10084192;28;20536;-67
2022/12/13 21:11:23;;;;;;;29.67;23.33;;;;;;;;;;10078738;28;20551;-67
2022/12/13 21:16:17;;;;;;;37.35;27.40;;;;;;;;;;10086657;28;20053;-70
2022/12/13 21:21:11;;;;;;;26.30;22.35;;;;;;;;;;10068854;28;20636;-67
2022/12/13 21:26:05;;;;;;;27.25;24.23;;;;;;;;;;10065097;28;20053;-67
2022/12/13 21:30:59;;;;;;;68.00;48.25;;;;;;;;;;10066831;28;20269;-69
2022/12/13 21:35:53;;;;;;;81.78;64.13;;;;;;;;;;10063515;28;20053;-69
2022/12/13 21:40:47;;;;;;;36.00;32.22;;;;;;;;;;10068181;28;20057;-66
2022/12/13 21:45:42;;;;;;;29.73;24.13;;;;;;;;;;10079178;28;20095;-69
2022/12/13 21:50:35;;;;;;;24.88;21.95;;;;;;;;;;10076178;28;20107;-70
2022/12/13 21:55:30;;;;;;;24.33;21.30;;;;;;;;;;10083999;28;20087;-67
2022/12/13 22:00:33;;;;;;;27.33;23.85;;;;;;;;;;10088629;28;20049;-68
2022/12/13 22:05:27;;;;;;;28.20;25.20;;;;;;;;;;10083295;28;20239;-70
2022/12/13 22:10:21;;;;;;;23.45;21.10;;;;;;;;;;10076122;28;20053;-68
2022/12/13 22:15:15;;;;;;;27.25;24.38;;;;;;;;;;10080543;28;20048;-71
2022/12/13 22:20:11;;;;;;;25.65;22.95;;;;;;;;;;10086793;28;20053;-68
2022/12/13 22:25:08;;;;;;;24.85;21.48;;;;;;;;;;10088205;28;20053;-70
2022/12/13 22:30:01;;;;;;;22.88;20.30;;;;;;;;;;10078381;28;20060;-69
2022/12/13 22:34:55;;;;;;;23.15;20.75;;;;;;;;;;10083105;28;20080;-68
2022/12/13 22:39:47;;;;;;;25.27;20.00;;;;;;;;;;10088710;28;20041;-68
2022/12/13 22:44:40;;;;;;;22.92;19.80;;;;;;;;;;10079846;28;20124;-68
2022/12/13 22:49:33;;;;;;;22.83;20.45;;;;;;;;;;10075819;28;20052;-68
2022/12/13 22:54:27;;;;;;;26.02;19.70;;;;;;;;;;10093745;28;20471;-68
2022/12/13 22:59:21;;;;;;;23.38;20.30;;;;;;;;;;10071857;28;20056;-69
2022/12/13 23:04:15;;;;;;;26.63;20.73;;;;;;;;;;10082708;28;20529;-68
2022/12/13 23:09:11;;;;;;;26.10;21.77;;;;;;;;;;10085265;28;20060;-68
2022/12/13 23:14:07;;;;;;;25.30;21.17;;;;;;;;;;10077176;28;20118;-68
2022/12/13 23:19:02;;;;;;;23.77;21.23;;;;;;;;;;10065735;28;20050;-68
2022/12/13 23:24:15;;;;;;;24.17;20.85;;;;;;;;;;10065643;28;20049;-68
2022/12/13 23:29:09;;;;;;;25.35;20.95;;;;;;;;;;10064225;28;20502;-68
2022/12/13 23:34:02;;;;;;;27.77;22.42;;;;;;;;;;10065853;28;20422;-68
2022/12/13 23:38:58;;;;;;;27.48;21.67;;;;;;;;;;10065614;28;20578;-68
2022/12/13 23:43:53;;;;;;;24.52;20.17;;;;;;;;;;10070580;28;20049;-68
2022/12/13 23:48:47;;;;;;;26.10;23.30;;;;;;;;;;10073357;28;20049;-68
2022/12/13 23:53:40;;;;;;;27.88;21.58;;;;;;;;;;10072564;28;20140;-68
2022/12/13 23:58:35;;;;;;;24.35;20.85;;;;;;;;;;10073385;28;20054;-68
